Time;durP1;ratioP1;P1;durP2;ratioP2;P2;SDS_P1;SDS_P2;PMS_P1;PMS_P2;Temp;Humidity;BMP_temperature;BMP_pressure;BME280_temperature;BME280_humidity;BME280_pressure;Samples;Min_cycle;Max_cycle;Signal;HPM_P1;HPM_P2
2023/02/13 00:00:12;;;;;;;77.47;14.70;;;;;;;-0.85;100.00;97706.22;1026550;28;20027;-66
2023/02/13 00:00:43;;;;;;;95.60;19.42;;;;;;;-0.85;100.00;97706.22;1034395;28;20631;-67
2023/02/13 00:01:13;;;;;;;61.35;17.38;;;;;;;-0.86;100.00;97704.59;1035057;28;20030;-66
2023/02/13 00:01:44;;;;;;;54.13;14.63;;;;;;;-0.85;100.00;97701.06;1035402;28;20029;-66
2023/02/13 00:02:14;;;;;;;51.28;15.23;;;;;;;-0.88;100.00;97696.19;1034824;28;20029;-66
2023/02/13 00:02:45;;;;;;;61.53;15.18;;;;;;;-0.86;100.00;97694.28;1031090;28;20022;-67
2023/02/13 00:03:15;;;;;;;55.25;15.05;;;;;;;-0.84;100.00;97705.28;1035183;28;20030;-66
2023/02/13 00:03:46;;;;;;;54.25;15.15;;;;;;;-0.85;100.00;97705.41;1034858;28;20089;-65
2023/02/13 00:04:16;;;;;;;61.28;16.08;;;;;;;-0.84;100.00;97696.72;1035019;28;20454;-65
2023/02/13 00:04:47;;;;;;;51.97;15.63;;;;;;;-0.83;100.00;97693.22;1034980;28;20086;-66
2023/02/13 00:05:18;;;;;;;71.00;16.08;;;;;;;-0.85;100.00;97706.22;1031103;28;20492;-66
2023/02/13 00:05:48;;;;;;;70.07;16.55;;;;;;;-0.86;100.00;97702.03;1035553;28;20264;-67
2023/02/13 00:06:19;;;;;;;51.53;15.98;;;;;;;-0.85;100.00;97693.34;1031105;28;20385;-65
2023/02/13 00:06:49;;;;;;;45.53;14.48;;;;;;;-0.85;100.00;97693.34;1030136;28;20022;-68
2023/02/13 00:07:20;;;;;;;61.70;15.48;;;;;;;-0.86;100.00;97694.28;1031234;28;20030;-65
2023/02/13 00:07:50;;;;;;;58.38;16.02;;;;;;;-0.89;100.00;97701.50;1031192;28;20099;-66
2023/02/13 00:08:21;;;;;;;59.00;16.17;;;;;;;-0.88;100.00;97698.78;1034923;28;20030;-67
2023/02/13 00:08:52;;;;;;;63.63;15.25;;;;;;;-0.87;100.00;97700.41;1035151;28;20061;-65
2023/02/13 00:09:22;;;;;;;47.38;14.00;;;;;;;-0.89;100.00;97699.72;1030674;28;20022;-65
2023/02/13 00:09:53;;;;;;;52.28;14.95;;;;;;;-0.90;100.00;97692.97;1030118;28;20033;-64
2023/02/13 00:10:23;;;;;;;56.50;15.98;;;;;;;-0.88;100.00;97701.34;1034034;28;20022;-67
2023/02/13 00:10:53;;;;;;;61.55;15.45;;;;;;;-0.90;100.00;97697.31;1034116;28;20029;-66
2023/02/13 00:11:24;;;;;;;68.82;18.25;;;;;;;-0.90;100.00;97695.53;1034297;28;20145;-65
2023/02/13 00:11:54;;;;;;;51.85;15.70;;;;;;;-0.91;100.00;97696.47;1040790;28;20017;-66
2023/02/13 00:12:25;;;;;;;56.33;15.73;;;;;;;-0.89;100.00;97697.16;1038077;28;20018;-65
2023/02/13 00:12:55;;;;;;;48.05;15.02;;;;;;;-0.87;100.00;97691.84;1034649;28;20456;-67
2023/02/13 00:13:26;;;;;;;60.58;16.40;;;;;;;-0.88;100.00;97696.19;1034061;28;20018;-65
2023/02/13 00:13:57;;;;;;;62.67;14.88;;;;;;;-0.87;100.00;97697.84;1026341;28;20128;-65
2023/02/13 00:14:27;;;;;;;45.05;15.25;;;;;;;-1.00;100.00;97682.69;1026329;28;20018;-64
2023/02/13 00:14:59;;;;;;;61.08;16.23;;;;;;;-0.87;100.00;97697.84;1030312;28;20308;-65
2023/02/13 00:15:29;;;;;;;68.04;16.96;;;;;;;-0.90;100.00;97698.13;1034465;28;20116;-69
2023/02/13 00:16:01;;;;;;;63.25;16.30;;;;;;;-0.90;100.00;97698.13;1038352;28;20022;-66
2023/02/13 00:16:32;;;;;;;49.84;15.00;;;;;;;-0.90;100.00;97698.13;1038255;28;20037;-65
2023/02/13 00:17:03;;;;;;;63.72;15.93;;;;;;;-0.92;100.00;97692.28;1037569;28;20026;-64
2023/02/13 00:17:33;;;;;;;48.17;16.00;;;;;;;-0.90;100.00;97692.97;1029528;28;20070;-68
2023/02/13 00:18:04;;;;;;;52.85;16.88;;;;;;;-0.91;100.00;97693.91;1022295;29;20023;-63
2023/02/13 00:18:35;;;;;;;70.20;16.05;;;;;;;-0.90;100.00;97687.00;1026107;28;20571;-64
2023/02/13 00:19:09;;;;;;;61.84;15.92;;;;;;;-0.92;100.00;97694.06;1028183;28;20082;-66
2023/02/13 00:19:39;;;;;;;64.66;16.60;;;;;;;-0.92;100.00;97697.44;1030829;28;20321;-66
2023/02/13 00:20:10;;;;;;;65.78;16.73;;;;;;;-0.91;100.00;97685.34;1033586;28;20396;-67
2023/02/13 00:20:40;;;;;;;58.65;16.50;;;;;;;-0.91;100.00;97693.91;1033973;28;20030;-66
2023/02/13 00:21:11;;;;;;;57.45;16.27;;;;;;;-0.91;100.00;97690.50;1038923;28;20037;-67
2023/02/13 00:21:42;;;;;;;92.00;16.74;;;;;;;-0.89;100.00;97697.16;1038113;28;20056;-67
2023/02/13 00:22:15;;;;;;;61.08;14.90;;;;;;;-0.90;100.00;97695.53;1038481;28;20119;-66
2023/02/13 00:22:45;;;;;;;52.30;17.06;;;;;;;-0.86;100.00;97691.72;1033842;28;20025;-66
2023/02/13 00:23:16;;;;;;;65.60;16.35;;;;;;;-0.87;100.00;97700.41;1034669;28;20030;-64
2023/02/13 00:23:46;;;;;;;67.05;17.20;;;;;;;-0.90;100.00;97692.97;1038564;28;20645;-65
2023/02/13 00:24:17;;;;;;;59.70;16.55;;;;;;;-0.90;100.00;97698.13;1038181;28;20029;-65
2023/02/13 00:24:47;;;;;;;82.78;17.60;;;;;;;-0.90;100.00;97703.28;1038308;28;20033;-67
2023/02/13 00:25:18;;;;;;;68.25;15.75;;;;;;;-0.91;100.00;97701.63;1034772;28;20026;-66
2023/02/13 00:25:48;;;;;;;77.45;17.25;;;;;;;-0.92;100.00;97699.19;1034232;28;20455;-65
2023/02/13 00:26:19;;;;;;;63.92;16.92;;;;;;;-0.92;100.00;97700.00;1038444;28;20040;-65
2023/02/13 00:26:49;;;;;;;63.72;16.48;;;;;;;-0.92;100.00;97702.59;1037617;28;20429;-65
2023/02/13 00:27:20;;;;;;;62.38;17.23;;;;;;;-0.92;100.00;97700.00;1030073;28;20045;-67
2023/02/13 00:27:52;;;;;;;92.05;17.40;;;;;;;-0.91;100.00;97705.97;1030069;28;20034;-66
2023/02/13 00:28:23;;;;;;;78.36;18.48;;;;;;;-0.90;100.00;97698.13;1026135;28;20501;-65
2023/02/13 00:28:55;;;;;;;72.20;16.60;;;;;;;-0.89;100.00;97698.94;1026587;28;20345;-66
2023/02/13 00:29:25;;;;;;;67.54;16.04;;;;;;;-0.90;100.00;97703.28;1025955;28;20099;-66
2023/02/13 00:29:56;;;;;;;69.07;18.15;;;;;;;-0.87;100.00;97702.16;1026551;28;20114;-65
2023/02/13 00:30:26;;;;;;;61.63;17.02;;;;;;;-0.87;100.00;97710.72;1030435;28;20042;-65
2023/02/13 00:31:11;;;;;;;95.63;18.08;;;;;;;-0.87;100.00;97705.56;1030427;28;20456;-65
2023/02/13 00:31:41;;;;;;;71.16;17.72;;;;;;;-0.88;100.00;97700.53;1035146;28;20034;-65
2023/02/13 00:32:12;;;;;;;64.65;16.10;;;;;;;-0.90;100.00;97708.41;1034894;28;20038;-66
2023/02/13 00:32:43;;;;;;;71.90;15.22;;;;;;;-0.88;100.00;97709.06;1030853;28;20042;-66
2023/02/13 00:33:13;;;;;;;89.68;18.23;;;;;;;-0.87;100.00;97702.16;1031070;28;20053;-65
2023/02/13 00:33:44;;;;;;;94.40;19.17;;;;;;;-0.85;100.00;97706.22;1034933;28;20030;-67
2023/02/13 00:34:14;;;;;;;64.93;17.33;;;;;;;-0.85;100.00;97708.00;1030798;28;20026;-65
2023/02/13 00:34:45;;;;;;;62.17;17.95;;;;;;;-0.85;100.00;97706.22;1035238;28;20030;-65
2023/02/13 00:35:15;;;;;;;63.47;17.70;;;;;;;-0.84;100.00;97707.88;1034817;28;20049;-66
2023/02/13 00:35:46;;;;;;;61.92;15.48;;;;;;;-0.85;100.00;97706.22;1031456;28;20046;-67
2023/02/13 00:36:18;;;;;;;60.53;16.05;;;;;;;-0.85;100.00;97706.22;1034715;28;20100;-67
2023/02/13 00:36:49;;;;;;;78.26;16.70;;;;;;;-0.85;100.00;97711.38;1034441;28;20097;-66
2023/02/13 00:37:19;;;;;;;59.97;15.90;;;;;;;-0.89;100.00;97704.06;1035169;28;20029;-66
2023/02/13 00:37:50;;;;;;;75.82;17.80;;;;;;;-0.86;100.00;97708.94;1038826;28;20026;-66
2023/02/13 00:38:20;;;;;;;58.65;16.35;;;;;;;-0.87;100.00;97703.00;1034825;28;20083;-66
2023/02/13 00:38:51;;;;;;;63.20;17.33;;;;;;;-0.87;100.00;97704.72;1039191;28;20507;-65
2023/02/13 00:39:21;;;;;;;55.20;16.38;;;;;;;-0.85;100.00;97710.56;1034798;28;20026;-67
2023/02/13 00:39:52;;;;;;;75.20;17.40;;;;;;;-0.84;100.00;97707.88;1030886;28;20132;-67
2023/02/13 00:40:22;;;;;;;57.72;17.83;;;;;;;-0.82;100.00;97710.28;1030539;28;20444;-66
2023/02/13 00:40:55;;;;;;;65.30;16.70;;;;;;;-0.79;100.00;97703.06;1022762;29;20035;-65
2023/02/13 00:41:26;;;;;;;48.56;15.94;;;;;;;-0.79;100.00;97710.81;1018961;29;20042;-68
2023/02/13 00:41:56;;;;;;;65.72;17.77;;;;;;;-0.82;100.00;97710.28;1019309;29;20038;-66
2023/02/13 00:42:27;;;;;;;63.05;16.55;;;;;;;-0.82;100.00;97705.94;1023544;28;20027;-65
2023/02/13 00:42:57;;;;;;;63.53;17.05;;;;;;;-0.80;100.00;97700.66;1030951;28;20726;-65
2023/02/13 00:43:28;;;;;;;65.38;17.30;;;;;;;-0.78;100.00;97712.41;1035342;28;20053;-65
2023/02/13 00:43:58;;;;;;;60.88;17.50;;;;;;;-0.78;100.00;97707.28;1035538;28;20112;-67
2023/02/13 00:44:29;;;;;;;73.60;18.05;;;;;;;-0.79;100.00;97700.50;1035025;28;20026;-65
2023/02/13 00:44:59;;;;;;;62.28;16.13;;;;;;;-0.78;100.00;97709.03;1035416;28;20030;-65
2023/02/13 00:45:30;;;;;;;62.58;16.50;;;;;;;-0.79;100.00;97705.66;1035439;28;20026;-65
2023/02/13 00:46:00;;;;;;;65.43;16.77;;;;;;;-0.81;100.00;97696.44;1035342;28;20025;-67
2023/02/13 00:46:31;;;;;;;68.55;18.25;;;;;;;-0.81;100.00;97710.13;1026469;28;20081;-65
2023/02/13 00:47:01;;;;;;;71.97;17.58;;;;;;;-0.79;100.00;97703.06;1026324;28;20407;-65
2023/02/13 00:47:32;;;;;;;62.30;17.52;;;;;;;-0.77;100.00;97708.91;1026876;28;20034;-65
2023/02/13 00:48:02;;;;;;;66.00;17.52;;;;;;;-0.77;100.00;97703.75;1027191;28;20087;-68
2023/02/13 00:48:33;;;;;;;75.45;17.23;;;;;;;-0.77;100.00;97703.75;1038812;28;20025;-66
2023/02/13 00:49:03;;;;;;;70.35;17.70;;;;;;;-0.76;100.00;97705.38;1035049;28;20052;-65
2023/02/13 00:49:34;;;;;;;65.50;17.00;;;;;;;-0.76;100.00;97709.72;1035013;28;20052;-65
2023/02/13 00:50:05;;;;;;;59.60;17.20;;;;;;;-0.76;100.00;97707.94;1034919;28;20072;-66
2023/02/13 00:50:35;;;;;;;91.28;18.98;;;;;;;-0.75;100.00;97703.59;1030782;28;20403;-67
2023/02/13 00:51:06;;;;;;;85.80;21.42;;;;;;;-0.77;100.00;97703.75;1035434;28;20025;-65
2023/02/13 00:51:36;;;;;;;68.28;17.23;;;;;;;-0.79;100.00;97710.81;1030810;28;20030;-66
2023/02/13 00:52:07;;;;;;;91.93;19.88;;;;;;;-0.82;100.00;97700.78;1031060;28;20039;-67
2023/02/13 00:52:37;;;;;;;86.20;17.67;;;;;;;-0.83;100.00;97694.00;1026785;28;20097;-65
2023/02/13 00:53:08;;;;;;;64.45;16.95;;;;;;;-0.79;100.00;97703.06;1026718;28;20031;-65
2023/02/13 00:53:38;;;;;;;74.90;18.58;;;;;;;-0.75;100.00;97707.00;1031076;28;20080;-68
2023/02/13 00:54:09;;;;;;;71.97;18.35;;;;;;;-0.78;100.00;97699.53;1030956;28;20037;-65
2023/02/13 00:54:39;;;;;;;98.40;19.48;;;;;;;-0.79;100.00;97704.84;1035157;28;20462;-66
2023/02/13 00:55:10;;;;;;;74.70;18.52;;;;;;;-0.77;100.00;97702.91;1035415;28;20633;-65
2023/02/13 00:55:40;;;;;;;70.38;17.05;;;;;;;-0.78;100.00;97702.13;1034865;28;20080;-65
2023/02/13 00:56:11;;;;;;;66.65;18.17;;;;;;;-0.75;100.00;97699.25;1022686;29;20035;-67
2023/02/13 00:56:41;;;;;;;71.63;18.10;;;;;;;-0.77;100.00;97693.44;1022355;29;20512;-65
2023/02/13 00:57:12;;;;;;;80.07;19.25;;;;;;;-0.77;100.00;97697.78;1022683;29;20113;-65
2023/02/13 00:57:42;;;;;;;74.78;18.25;;;;;;;-0.76;100.00;97699.41;1023174;28;20061;-66
2023/02/13 00:58:13;;;;;;;62.80;18.50;;;;;;;-0.75;100.00;97699.25;1035065;28;20034;-68
2023/02/13 00:58:43;;;;;;;63.72;16.63;;;;;;;-0.72;100.00;97698.97;1035135;28;20036;-65
2023/02/13 00:59:14;;;;;;;60.00;16.42;;;;;;;-0.72;100.00;97696.41;1038920;28;20585;-64
2023/02/13 00:59:44;;;;;;;67.65;17.40;;;;;;;-0.72;100.00;97696.41;1034806;28;20021;-69
2023/02/13 01:00:15;;;;;;;73.43;18.30;;;;;;;-0.73;100.00;97694.78;1034769;28;20036;-66
2023/02/13 01:00:46;;;;;;;96.45;19.33;;;;;;;-0.78;100.00;97686.66;1034919;28;20482;-65
2023/02/13 01:01:16;;;;;;;79.95;20.52;;;;;;;-0.72;100.00;97696.41;1034830;28;20963;-65
2023/02/13 01:01:47;;;;;;;61.58;16.83;;;;;;;-0.69;100.00;97695.31;1039056;28;20032;-67
2023/02/13 01:02:18;;;;;;;56.50;16.10;;;;;;;-0.66;100.00;97702.75;1038850;28;20037;-65
2023/02/13 01:02:48;;;;;;;88.60;18.33;;;;;;;-0.68;100.00;97699.50;1038830;28;20391;-64
2023/02/13 01:03:19;;;;;;;73.70;16.85;;;;;;;-0.77;100.00;97698.59;1035125;28;20030;-65
2023/02/13 01:03:49;;;;;;;86.66;17.54;;;;;;;-0.77;100.00;97697.78;1026863;28;20034;-66
2023/02/13 01:04:20;;;;;;;100.50;18.95;;;;;;;-0.77;100.00;97698.59;1026962;28;20030;-65
2023/02/13 01:04:50;;;;;;;69.53;18.85;;;;;;;-0.81;100.00;97696.44;1026954;28;20038;-65
2023/02/13 01:05:21;;;;;;;67.85;19.08;;;;;;;-0.79;100.00;97697.13;1026933;28;20034;-66
2023/02/13 01:05:55;;;;;;;72.10;17.90;;;;;;;-0.81;100.00;97694.66;1039158;28;20094;-66
2023/02/13 01:06:25;;;;;;;77.58;16.18;;;;;;;-0.82;100.00;97695.63;1038900;28;20029;-67
2023/02/13 01:06:56;;;;;;;79.13;17.08;;;;;;;-0.87;100.00;97703.00;1038106;28;20079;-66
2023/02/13 01:07:26;;;;;;;77.55;15.73;;;;;;;-0.87;100.00;97700.41;1034545;28;20032;-65
2023/02/13 01:07:57;;;;;;;56.65;16.23;;;;;;;-0.83;100.00;97696.59;1030802;28;20025;-65
2023/02/13 01:08:27;;;;;;;72.03;17.27;;;;;;;-0.82;100.00;97695.63;1026543;28;20551;-68
2023/02/13 01:08:58;;;;;;;66.90;18.20;;;;;;;-0.82;100.00;97694.81;1027167;28;20030;-65
2023/02/13 01:09:28;;;;;;;78.60;18.05;;;;;;;-0.83;100.00;97699.16;1030569;28;20049;-65
2023/02/13 01:09:58;;;;;;;56.65;16.48;;;;;;;-0.80;100.00;97698.88;1030896;28;20707;-65
2023/02/13 01:10:29;;;;;;;67.55;18.70;;;;;;;-0.82;100.00;97699.97;1034971;28;20019;-68
2023/02/13 01:10:59;;;;;;;93.22;17.70;;;;;;;-0.85;100.00;97695.09;1035168;28;20010;-65
2023/02/13 01:11:30;;;;;;;78.88;17.98;;;;;;;-0.88;100.00;97703.91;1035028;28;20014;-64
2023/02/13 01:12:00;;;;;;;86.47;18.17;;;;;;;-0.90;100.00;97698.13;1033526;28;20427;-66
2023/02/13 01:12:31;;;;;;;77.32;16.75;;;;;;;-0.91;100.00;97699.06;1034887;28;20029;-65
2023/02/13 01:13:01;;;;;;;62.35;17.08;;;;;;;-0.87;100.00;97702.16;1035453;28;20528;-67
2023/02/13 01:13:32;;;;;;;98.43;18.58;;;;;;;-0.83;100.00;97698.34;1035030;28;20017;-66
2023/02/13 01:14:02;;;;;;;73.93;17.95;;;;;;;-0.84;100.00;97702.72;1030962;28;20507;-65
2023/02/13 01:14:33;;;;;;;64.60;16.70;;;;;;;-0.81;100.00;97697.25;1026736;28;20102;-65
2023/02/13 01:15:04;;;;;;;73.70;17.75;;;;;;;-0.85;100.00;97690.75;1026796;28;20023;-65
2023/02/13 01:15:35;;;;;;;56.17;16.10;;;;;;;-0.80;100.00;97703.22;1030948;28;20999;-65
2023/02/13 01:16:05;;;;;;;123.95;20.80;;;;;;;-0.83;100.00;97698.34;1030933;28;20269;-68
2023/02/13 01:16:36;;;;;;;94.53;19.77;;;;;;;-0.80;100.00;97704.03;1034262;28;20080;-63
2023/02/13 01:17:06;;;;;;;70.32;16.83;;;;;;;-0.80;100.00;97704.03;1034729;28;20135;-65
2023/02/13 01:17:40;;;;;;;80.95;16.27;;;;;;;-0.81;100.00;97699.00;1026679;28;20026;-64
2023/02/13 01:18:14;;;;;;;88.78;18.02;;;;;;;-0.83;100.00;97703.50;1030998;28;20026;-65
2023/02/13 01:18:44;;;;;;;82.28;17.86;;;;;;;-0.83;100.00;97704.31;1030669;28;20021;-66
2023/02/13 01:19:15;;;;;;;98.00;16.98;;;;;;;-0.84;100.00;97707.88;1030686;28;20050;-65
2023/02/13 01:19:45;;;;;;;88.30;17.70;;;;;;;-0.88;100.00;97703.13;1030831;28;20484;-67
2023/02/13 01:20:16;;;;;;;74.00;16.88;;;;;;;-0.86;100.00;97707.19;1034995;28;20030;-65
2023/02/13 01:21:01;;;;;;;97.25;16.60;;;;;;;-0.84;100.00;97702.72;1034748;28;20511;-69
2023/02/13 01:21:31;;;;;;;61.68;15.28;;;;;;;-0.86;100.00;97707.19;1034788;28;20038;-66
2023/02/13 01:22:02;;;;;;;93.53;18.90;;;;;;;-0.86;100.00;97707.19;1032600;28;20030;-65
2023/02/13 01:22:32;;;;;;;91.32;18.70;;;;;;;-0.84;100.00;97697.56;1032886;28;20138;-67
2023/02/13 01:23:03;;;;;;;75.15;17.45;;;;;;;-0.86;100.00;97704.59;1035247;28;20105;-66
2023/02/13 01:23:36;;;;;;;64.03;16.17;;;;;;;-0.85;100.00;97703.63;1039010;28;20025;-66
2023/02/13 01:24:07;;;;;;;101.02;17.16;;;;;;;-0.89;100.00;97704.88;1038608;28;20359;-65
2023/02/13 01:24:37;;;;;;;87.40;16.50;;;;;;;-0.87;100.00;97708.16;1038933;28;20025;-66
2023/02/13 01:25:08;;;;;;;56.80;14.75;;;;;;;-0.87;100.00;97708.16;1038634;28;20025;-65
2023/02/13 01:25:42;;;;;;;79.75;18.92;;;;;;;-0.87;100.00;97700.41;1035043;28;20101;-66
2023/02/13 01:26:19;;;;;;;82.20;15.76;;;;;;;-0.87;100.00;97703.00;1030590;28;20037;-65
2023/02/13 01:26:49;;;;;;;74.76;14.86;;;;;;;-0.88;100.00;97706.50;1034114;28;20054;-66
2023/02/13 01:27:20;;;;;;;66.78;17.38;;;;;;;-0.87;100.00;97709.88;1034778;28;20022;-66
2023/02/13 01:27:50;;;;;;;62.70;17.10;;;;;;;-0.86;100.00;97706.38;1036132;28;20021;-66
2023/02/13 01:28:20;;;;;;;72.22;16.13;;;;;;;-0.88;100.00;97703.91;1033972;28;20185;-64
2023/02/13 01:28:56;;;;;;;76.32;16.75;;;;;;;-0.85;100.00;97711.38;1030811;28;20050;-66
2023/02/13 01:29:27;;;;;;;85.84;17.92;;;;;;;-0.87;100.00;97710.72;1030635;28;20511;-65
2023/02/13 01:29:58;;;;;;;67.85;17.13;;;;;;;-0.87;100.00;97703.00;1031644;28;20019;-68
2023/02/13 01:30:28;;;;;;;75.15;18.98;;;;;;;-0.84;100.00;97704.44;1034744;28;20033;-65
2023/02/13 01:30:59;;;;;;;61.83;16.70;;;;;;;-0.83;100.00;97699.16;1034247;28;20495;-64
2023/02/13 01:31:29;;;;;;;62.40;17.95;;;;;;;-0.82;100.00;97698.22;1030647;28;20073;-65
2023/02/13 01:32:02;;;;;;;61.15;16.50;;;;;;;-0.83;100.00;97704.31;1030761;28;20018;-67
2023/02/13 01:32:32;;;;;;;83.66;18.86;;;;;;;-0.85;100.00;97702.84;1030258;28;20034;-66
2023/02/13 01:33:03;;;;;;;76.32;17.70;;;;;;;-0.86;100.00;97702.03;1035325;28;20037;-66
2023/02/13 01:33:34;;;;;;;69.95;17.17;;;;;;;-0.86;100.00;97699.44;1034753;28;20041;-66
2023/02/13 01:34:05;;;;;;;76.82;19.26;;;;;;;-0.85;100.00;97700.25;1034775;28;20038;-64
2023/02/13 01:34:35;;;;;;;70.43;17.02;;;;;;;-0.82;100.00;97695.63;1034199;28;20636;-65
2023/02/13 01:35:06;;;;;;;91.13;18.80;;;;;;;-0.82;100.00;97695.63;1030966;28;20026;-68
2023/02/13 01:35:39;;;;;;;89.82;18.38;;;;;;;-0.81;100.00;97692.09;1030681;28;20076;-66
2023/02/13 01:36:10;;;;;;;76.92;17.30;;;;;;;-0.88;100.00;97688.47;1030606;28;20586;-67
2023/02/13 01:36:41;;;;;;;72.54;18.92;;;;;;;-0.79;100.00;97695.34;1025780;28;20029;-65
2023/02/13 01:37:11;;;;;;;75.32;20.98;;;;;;;-0.83;100.00;97686.28;1026698;28;20694;-67
2023/02/13 01:37:42;;;;;;;81.13;18.23;;;;;;;-0.77;100.00;97695.19;1026442;28;20509;-69
2023/02/13 01:38:13;;;;;;;84.22;17.73;;;;;;;-0.79;100.00;97695.34;1022895;28;20433;-65
2023/02/13 01:38:43;;;;;;;94.72;19.23;;;;;;;-0.80;100.00;97698.88;1022580;29;20019;-66
2023/02/13 01:39:13;;;;;;;83.70;18.20;;;;;;;-0.78;100.00;97701.31;1026934;28;20485;-66
2023/02/13 01:39:44;;;;;;;89.40;19.92;;;;;;;-0.77;100.00;97703.75;1026610;28;20479;-68
2023/02/13 01:40:16;;;;;;;57.05;17.48;;;;;;;-0.77;100.00;97693.44;1034861;28;20025;-66
2023/02/13 01:40:50;;;;;;;74.40;17.64;;;;;;;-0.76;100.00;97702.78;1034149;28;20124;-66
2023/02/13 01:41:21;;;;;;;74.08;18.80;;;;;;;-0.76;100.00;97705.38;1035453;28;20029;-66
2023/02/13 01:41:52;;;;;;;103.95;21.08;;;;;;;-0.74;100.00;97700.06;1033907;28;20026;-67
2023/02/13 01:42:27;;;;;;;79.20;18.23;;;;;;;-0.73;100.00;97699.94;1031198;28;20210;-65
2023/02/13 01:42:58;;;;;;;64.76;16.70;;;;;;;-0.75;100.00;97699.25;1029303;28;20477;-67
2023/02/13 01:43:48;;;;;;;86.38;19.40;;;;;;;-0.72;100.00;97706.72;1027581;28;20230;-65
2023/02/13 01:44:50;;;;;;;69.72;15.72;;;;;;;-0.75;100.00;97701.84;1034516;28;20396;-66
2023/02/13 01:45:24;;;;;;;87.52;17.80;;;;;;;-0.75;100.00;97696.69;1038804;28;20041;-67
2023/02/13 01:45:55;;;;;;;79.92;18.74;;;;;;;-0.77;100.00;97692.63;1038054;28;20503;-65
2023/02/13 01:46:39;;;;;;;77.22;17.60;;;;;;;-0.77;100.00;97701.19;1031585;28;20041;-65
2023/02/13 01:47:09;;;;;;;82.46;18.76;;;;;;;-0.74;100.00;97692.34;1034594;28;20088;-65
2023/02/13 01:47:43;;;;;;;82.80;18.00;;;;;;;-0.78;100.00;97693.56;1030639;28;20554;-67
2023/02/13 01:48:24;;;;;;;86.20;17.48;;;;;;;-0.77;100.00;97693.44;1028551;28;20526;-65
2023/02/13 01:48:58;;;;;;;83.96;17.34;;;;;;;-0.79;100.00;97695.34;1024678;28;20018;-66
2023/02/13 01:49:28;;;;;;;100.76;18.92;;;;;;;-0.77;100.00;97697.78;1026809;28;20034;-63
2023/02/13 01:50:39;;;;;;;114.68;20.80;;;;;;;-0.72;100.00;97700.75;1037211;28;20646;-64
2023/02/13 01:51:16;;;;;;;65.92;16.28;;;;;;;-0.73;100.00;97693.97;1033140;28;20029;-66
2023/02/13 01:51:47;;;;;;;96.96;18.66;;;;;;;-0.74;100.00;97702.63;1020802;29;20587;-67
2023/02/13 01:52:17;;;;;;;102.28;19.42;;;;;;;-0.76;100.00;97696.84;1018970;29;20027;-65
2023/02/13 01:52:52;;;;;;;95.43;19.27;;;;;;;-0.79;100.00;97700.50;1022623;29;20026;-65
2023/02/13 01:53:26;;;;;;;71.70;17.94;;;;;;;-0.75;100.00;97696.69;1027271;28;20033;-67
2023/02/13 01:54:06;;;;;;;81.70;18.20;;;;;;;-0.75;100.00;97688.94;1033914;28;20092;-66
2023/02/13 01:54:37;;;;;;;85.57;18.83;;;;;;;-0.75;100.00;97699.25;1026558;28;20038;-67
2023/02/13 01:55:07;;;;;;;98.55;20.08;;;;;;;-0.76;100.00;97700.22;1024737;28;20046;-67
2023/02/13 01:55:43;;;;;;;88.97;18.38;;;;;;;-0.78;100.00;97694.38;1032310;28;20018;-65
2023/02/13 01:56:16;;;;;;;82.30;18.56;;;;;;;-0.78;100.00;97696.16;1031420;28;20057;-66
2023/02/13 01:56:52;;;;;;;81.80;18.56;;;;;;;-0.72;100.00;97695.59;1033168;28;20029;-65
2023/02/13 01:57:23;;;;;;;96.72;19.02;;;;;;;-0.77;100.00;97701.19;1030908;28;20446;-66
2023/02/13 01:57:58;;;;;;;75.04;16.88;;;;;;;-0.79;100.00;97695.34;1025722;28;20027;-65
2023/02/13 01:58:31;;;;;;;88.72;18.64;;;;;;;-0.80;100.00;97698.88;1022369;29;20111;-66
2023/02/13 01:59:06;;;;;;;86.76;18.00;;;;;;;-0.79;100.00;97703.06;1026663;28;20034;-66
2023/02/13 02:00:02;;;;;;;91.02;19.28;;;;;;;-0.78;100.00;97699.53;1028330;28;20407;-67
2023/02/13 02:00:33;;;;;;;133.50;21.90;;;;;;;-0.76;100.00;97705.38;1026506;28;20463;-66
2023/02/13 02:01:04;;;;;;;70.00;17.75;;;;;;;-0.75;100.00;97706.19;1024806;28;20031;-65
2023/02/13 02:01:34;;;;;;;98.50;21.42;;;;;;;-0.76;100.00;97702.78;1021564;28;20591;-66
2023/02/13 02:02:05;;;;;;;77.82;18.00;;;;;;;-0.76;100.00;97700.22;1024672;28;20027;-69
2023/02/13 02:02:36;;;;;;;122.88;21.23;;;;;;;-0.77;100.00;97698.59;1027074;28;20027;-63
2023/02/13 02:03:14;;;;;;;81.60;18.64;;;;;;;-0.77;100.00;97701.19;1034968;28;20423;-68
2023/02/13 02:03:51;;;;;;;75.92;17.90;;;;;;;-0.80;100.00;97692.94;1040254;28;20025;-67
2023/02/13 02:04:27;;;;;;;80.18;18.72;;;;;;;-0.77;100.00;97703.75;1038730;28;20025;-66
2023/02/13 02:04:58;;;;;;;93.64;20.58;;;;;;;-0.76;100.00;97700.22;1030076;28;20473;-66
2023/02/13 02:05:29;;;;;;;103.30;22.52;;;;;;;-0.78;100.00;97702.13;1026579;28;20042;-67
2023/02/13 02:06:00;;;;;;;123.98;20.82;;;;;;;-0.73;100.00;97705.09;1035731;28;20018;-65
2023/02/13 02:06:33;;;;;;;88.10;19.40;;;;;;;-0.75;100.00;97698.44;1038511;28;20399;-66
2023/02/13 02:07:17;;;;;;;79.62;19.62;;;;;;;-0.75;100.00;97703.59;1030300;28;20385;-65
2023/02/13 02:07:47;;;;;;;74.28;17.70;;;;;;;-0.71;100.00;97700.59;1021907;28;20025;-65
2023/02/13 02:08:18;;;;;;;97.85;20.42;;;;;;;-0.72;100.00;97701.56;1026308;28;20098;-64
2023/02/13 02:08:48;;;;;;;90.07;19.23;;;;;;;-0.74;100.00;97692.34;1030359;28;20537;-66
2023/02/13 02:09:24;;;;;;;76.88;18.48;;;;;;;-0.76;100.00;97684.75;1036059;28;20037;-69
2023/02/13 02:09:57;;;;;;;80.50;17.86;;;;;;;-0.67;100.00;97697.72;1028656;28;20153;-67
2023/02/13 02:10:28;;;;;;;76.80;17.68;;;;;;;-0.69;100.00;97699.66;1023618;28;20059;-66
2023/02/13 02:11:01;;;;;;;80.50;18.25;;;;;;;-0.71;100.00;97692.03;1026288;28;20121;-67
2023/02/13 02:11:41;;;;;;;77.58;19.68;;;;;;;-0.72;100.00;97698.16;1024507;28;20168;-65
2023/02/13 02:12:25;;;;;;;70.22;16.77;;;;;;;-0.66;100.00;97699.38;1030038;28;20485;-64
2023/02/13 02:13:05;;;;;;;62.22;16.80;;;;;;;-0.67;100.00;97698.56;1026468;28;20270;-65
2023/02/13 02:13:36;;;;;;;86.43;17.52;;;;;;;-0.69;100.00;97699.66;1030452;28;20034;-65
2023/02/13 02:14:06;;;;;;;59.38;16.88;;;;;;;-0.71;100.00;97697.19;1025625;28;20508;-66
2023/02/13 02:14:37;;;;;;;77.95;18.48;;;;;;;-0.73;100.00;97699.94;1028143;28;20019;-65
2023/02/13 02:15:08;;;;;;;74.30;18.52;;;;;;;-0.73;100.00;97697.34;1026475;28;20035;-66
2023/02/13 02:15:39;;;;;;;81.30;17.35;;;;;;;-0.77;100.00;97693.44;1026449;28;20037;-67
2023/02/13 02:16:09;;;;;;;91.40;17.66;;;;;;;-0.79;100.00;97695.34;1026248;28;20035;-65
2023/02/13 02:16:40;;;;;;;91.25;18.48;;;;;;;-0.79;100.00;97691.97;1025957;28;20023;-66
2023/02/13 02:17:10;;;;;;;71.18;17.73;;;;;;;-0.83;100.00;97688.06;1030774;28;20030;-64
2023/02/13 02:17:41;;;;;;;90.80;19.38;;;;;;;-0.81;100.00;97688.72;1026955;28;20487;-65
2023/02/13 02:18:16;;;;;;;79.45;18.17;;;;;;;-0.79;100.00;97690.19;1030736;28;20049;-68
2023/02/13 02:18:47;;;;;;;87.82;18.02;;;;;;;-0.80;100.00;97690.34;1034790;28;20096;-65
2023/02/13 02:19:37;;;;;;;81.22;19.60;;;;;;;-0.81;100.00;97691.28;1031123;28;20528;-68
2023/02/13 02:20:16;;;;;;;70.38;16.88;;;;;;;-0.78;100.00;97691.00;1030647;28;20650;-65
2023/02/13 02:20:55;;;;;;;78.60;18.44;;;;;;;-0.77;100.00;97687.47;1026198;28;20434;-67
2023/02/13 02:21:51;;;;;;;65.48;16.58;;;;;;;-0.77;100.00;97688.28;1030572;28;20167;-66
2023/02/13 02:22:45;;;;;;;67.60;16.24;;;;;;;-0.78;100.00;97684.06;1035274;28;20026;-65
2023/02/13 02:23:27;;;;;;;64.84;16.56;;;;;;;-0.81;100.00;97684.34;1034669;28;20022;-68
2023/02/13 02:24:25;;;;;;;76.00;16.18;;;;;;;-0.83;100.00;97688.88;1035653;28;20069;-64
2023/02/13 02:25:04;;;;;;;65.64;15.92;;;;;;;-0.83;100.00;97688.06;1035688;28;20022;-68
2023/02/13 02:25:59;;;;;;;77.46;17.92;;;;;;;-0.80;100.00;97692.94;1035268;28;20530;-66
2023/02/13 02:27:07;;;;;;;72.48;17.14;;;;;;;-0.80;100.00;97688.59;1031330;28;20496;-66
2023/02/13 02:27:56;;;;;;;78.68;16.96;;;;;;;-0.79;100.00;97690.19;1033716;28;20022;-66
2023/02/13 02:28:35;;;;;;;83.52;18.64;;;;;;;-0.78;100.00;97688.41;1035686;28;20029;-65